createdAt,value
2022-12-09T00:00:37.440Z,100422.97
2022-12-09T00:03:04.203Z,100430.06
2022-12-09T00:05:31.866Z,100427.53
2022-12-09T00:07:58.378Z,100432.19
2022-12-09T00:10:24.902Z,100437.34
2022-12-09T00:12:55.163Z,100427.91
2022-12-09T00:15:22.224Z,100430.69
2022-12-09T00:17:49.016Z,100434.28
2022-12-09T00:20:15.581Z,100433.81
2022-12-09T00:22:42.205Z,100444.66
2022-12-09T00:25:08.895Z,100429.94
2022-12-09T00:27:35.420Z,100435.53
2022-12-09T00:30:01.868Z,100436.50
2022-12-09T00:32:28.370Z,100431.16
2022-12-09T00:34:55.018Z,100445.59
2022-12-09T00:37:21.474Z,100438.00
2022-12-09T00:39:47.931Z,100444.38
2022-12-09T00:42:14.433Z,100439.41
2022-12-09T00:44:40.933Z,100440.25
2022-12-09T00:47:07.494Z,100442.41
2022-12-09T00:49:34.279Z,100441.41
2022-12-09T00:52:00.769Z,100438.03
2022-12-09T00:54:27.256Z,100431.88
2022-12-09T00:56:53.824Z,100428.47
2022-12-09T00:59:20.516Z,100423.66
2022-12-09T01:01:47.318Z,100420.63
2022-12-09T01:04:14.139Z,100415.94
2022-12-09T01:06:41.716Z,100424.19
2022-12-09T01:09:08.204Z,100436.38
2022-12-09T01:11:35.410Z,100439.63
2022-12-09T01:14:03.644Z,100437.75
2022-12-09T01:16:32.271Z,100452.16
2022-12-09T01:19:01.565Z,100440.47
2022-12-09T01:21:28.944Z,100447.72
2022-12-09T01:23:55.613Z,100440.66
2022-12-09T01:26:22.648Z,100438.72
2022-12-09T01:28:53.440Z,100437.16
2022-12-09T01:31:23.058Z,100443.66
2022-12-09T01:33:50.490Z,100434.97
2022-12-09T01:36:20.335Z,100431.91
2022-12-09T01:38:47.914Z,100435.50
2022-12-09T01:41:16.114Z,100431.03
2022-12-09T01:43:43.379Z,100424.94
2022-12-09T01:46:10.104Z,100423.00
2022-12-09T01:48:39.147Z,100427.13
2022-12-09T01:51:17.059Z,100423.19
2022-12-09T01:53:45.432Z,100432.03
2022-12-09T01:56:23.063Z,100422.22
2022-12-09T01:58:50.363Z,100425.84
2022-12-09T02:01:17.596Z,100420.34
2022-12-09T02:03:44.800Z,100431.66
2022-12-09T02:06:11.439Z,100420.91
2022-12-09T02:08:38.017Z,100420.53
2022-12-09T02:11:11.981Z,100422.84
2022-12-09T02:13:52.062Z,100419.88
2022-12-09T02:16:22.193Z,100418.63
2022-12-09T02:18:59.449Z,100421.47
2022-12-09T02:21:32.328Z,100406.72
2022-12-09T02:24:08.964Z,100426.09
2022-12-09T02:27:04.999Z,100418.50
2022-12-09T02:29:34.575Z,100410.53
2022-12-09T02:32:16.441Z,100424.56
2022-12-09T02:34:53.639Z,100410.00
2022-12-09T02:37:24.158Z,100428.00
2022-12-09T02:39:57.878Z,100435.50
2022-12-09T02:42:26.591Z,100427.78
2022-12-09T02:44:53.335Z,100422.34
2022-12-09T02:47:23.155Z,100419.47
2022-12-09T02:49:56.062Z,100426.19
2022-12-09T02:52:23.169Z,100426.97
2022-12-09T02:54:50.695Z,100425.09
2022-12-09T02:57:20.531Z,100426.28
2022-12-09T02:59:46.969Z,100422.16
2022-12-09T03:02:32.478Z,100426.44
2022-12-09T03:05:13.054Z,100417.88
2022-12-09T03:07:51.743Z,100419.06
2022-12-09T03:10:36.122Z,100414.69
2022-12-09T03:13:08.364Z,100427.38
2022-12-09T03:15:36.146Z,100430.78
2022-12-09T03:18:05.139Z,100428.22
2022-12-09T03:20:32.839Z,100431.66
2022-12-09T03:23:01.407Z,100424.75
2022-12-09T03:25:33.915Z,100423.97
2022-12-09T03:28:00.383Z,100422.22
2022-12-09T03:30:26.909Z,100419.13
2022-12-09T03:32:54.860Z,100418.81
2022-12-09T03:35:24.821Z,100406.72
2022-12-09T03:37:52.457Z,100416.56
2022-12-09T03:40:24.373Z,100411.41
2022-12-09T03:43:24.475Z,100412.75
2022-12-09T03:45:54.811Z,100408.88
2022-12-09T03:48:21.882Z,100403.56
2022-12-09T03:50:54.724Z,100403.16
2022-12-09T03:53:31.688Z,100398.78
2022-12-09T03:56:03.270Z,100407.66
2022-12-09T03:58:32.241Z,100410.16
2022-12-09T04:00:59.130Z,100408.78
2022-12-09T04:03:26.807Z,100402.19
2022-12-09T04:05:53.643Z,100401.41
2022-12-09T04:08:20.151Z,100394.13
2022-12-09T04:10:46.978Z,100399.28
2022-12-09T04:13:13.699Z,100402.72
2022-12-09T04:15:40.148Z,100403.56
2022-12-09T04:18:07.105Z,100394.50
2022-12-09T04:20:33.947Z,100405.72
2022-12-09T04:23:00.738Z,100392.94
2022-12-09T04:25:27.529Z,100403.47
2022-12-09T04:27:54.156Z,100401.09
2022-12-09T04:30:20.773Z,100392.00
2022-12-09T04:32:48.560Z,100392.66
2022-12-09T04:35:15.175Z,100385.72
2022-12-09T04:37:41.959Z,100389.66
2022-12-09T04:40:09.373Z,100393.72
2022-12-09T04:42:36.075Z,100382.78
2022-12-09T04:45:03.060Z,100383.63
2022-12-09T04:47:29.670Z,100381.34
2022-12-09T04:49:56.406Z,100392.53
2022-12-09T04:52:22.868Z,100391.88
2022-12-09T04:54:51.026Z,100401.13
2022-12-09T04:57:18.607Z,100398.47
2022-12-09T04:59:45.831Z,100400.31
2022-12-09T05:02:12.804Z,100409.91
2022-12-09T05:04:40.284Z,100417.47
2022-12-09T05:07:07.060Z,100420.09
2022-12-09T05:09:34.407Z,100410.94
2022-12-09T05:12:01.101Z,100408.50
2022-12-09T05:14:28.049Z,100414.19
2022-12-09T05:16:54.720Z,100414.94
2022-12-09T05:19:21.832Z,100418.47
2022-12-09T05:21:48.652Z,100418.41
2022-12-09T05:24:15.501Z,100419.44
2022-12-09T05:26:42.312Z,100420.50
2022-12-09T05:29:09.248Z,100425.09
2022-12-09T05:31:35.935Z,100425.59
2022-12-09T05:34:03.173Z,100420.63
2022-12-09T05:36:30.439Z,100415.53
2022-12-09T05:38:57.258Z,100420.75
2022-12-09T05:41:24.418Z,100415.31
2022-12-09T05:43:51.876Z,100415.69
2022-12-09T05:46:19.279Z,100411.31
2022-12-09T05:48:46.171Z,100410.81
2022-12-09T05:51:24.621Z,100400.28
2022-12-09T05:53:51.691Z,100402.13
2022-12-09T05:56:19.612Z,100395.13
2022-12-09T05:58:46.910Z,100396.13
2022-12-09T06:01:14.252Z,100394.00
2022-12-09T06:03:41.251Z,100394.19
2022-12-09T06:06:11.503Z,100390.59
2022-12-09T06:08:38.623Z,100395.84
2022-12-09T06:11:08.714Z,100390.06
2022-12-09T06:13:35.385Z,100388.59
2022-12-09T06:16:04.424Z,100393.72
2022-12-09T06:18:31.567Z,100397.75
2022-12-09T06:20:59.073Z,100397.75
2022-12-09T06:23:26.377Z,100390.78
2022-12-09T06:25:53.086Z,100395.19
2022-12-09T06:28:20.269Z,100380.31
2022-12-09T06:30:47.183Z,100377.25
2022-12-09T06:33:37.342Z,100377.66
2022-12-09T06:36:02.203Z,100381.56
2022-12-09T06:38:28.914Z,100382.09
2022-12-09T06:40:55.964Z,100387.09
2022-12-09T06:43:22.994Z,100383.47
2022-12-09T06:45:49.646Z,100394.75
2022-12-09T06:48:16.571Z,100389.19
2022-12-09T06:50:43.445Z,100383.75
2022-12-09T06:53:10.171Z,100387.09
2022-12-09T06:55:36.767Z,100395.75
2022-12-09T06:58:03.637Z,100390.84
2022-12-09T07:00:30.422Z,100386.53
2022-12-09T07:02:57.546Z,100400.19
2022-12-09T07:05:25.146Z,100398.63
2022-12-09T07:07:52.449Z,100402.28
2022-12-09T07:10:20.767Z,100408.78
2022-12-09T07:12:47.644Z,100401.44
2022-12-09T07:15:14.724Z,100405.88
2022-12-09T07:17:42.143Z,100397.13
2022-12-09T07:20:09.403Z,100406.22
2022-12-09T07:22:36.375Z,100401.72
2022-12-09T07:25:03.035Z,100404.47
2022-12-09T07:27:30.364Z,100402.59
2022-12-09T07:29:58.425Z,100408.28
2022-12-09T07:32:25.202Z,100408.53
2022-12-09T07:34:51.942Z,100403.91
2022-12-09T07:37:18.826Z,100410.63
2022-12-09T07:39:45.490Z,100413.09
2022-12-09T07:42:12.047Z,100407.88
2022-12-09T07:44:38.852Z,100405.97
2022-12-09T07:47:05.489Z,100428.69
2022-12-09T07:49:32.503Z,100427.66
2022-12-09T07:51:59.474Z,100425.44
2022-12-09T07:54:26.002Z,100425.75
2022-12-09T07:56:52.507Z,100426.81
2022-12-09T07:59:19.209Z,100424.91
2022-12-09T08:01:46.062Z,100429.00
2022-12-09T08:04:13.423Z,100422.09
2022-12-09T08:06:40.414Z,100429.66
2022-12-09T08:09:11.307Z,100434.34
2022-12-09T08:11:38.509Z,100432.81
2022-12-09T08:14:11.403Z,100425.66
2022-12-09T08:16:40.275Z,100418.97
2022-12-09T08:19:07.324Z,100427.38
2022-12-09T08:21:34.584Z,100424.78
2022-12-09T08:24:03.328Z,100426.53
2022-12-09T08:26:31.673Z,100427.53
2022-12-09T08:28:59.093Z,100428.75
2022-12-09T08:31:27.405Z,100421.72
2022-12-09T08:33:54.840Z,100427.69
2022-12-09T08:36:24.037Z,100434.16
2022-12-09T08:38:51.141Z,100436.84
2022-12-09T08:41:35.839Z,100437.13
2022-12-09T08:44:09.841Z,100435.56
2022-12-09T08:46:38.948Z,100442.09
2022-12-09T08:49:06.536Z,100451.94
2022-12-09T08:51:34.222Z,100437.50
2022-12-09T08:54:01.729Z,100432.81
2022-12-09T08:56:29.219Z,100442.91
2022-12-09T08:58:56.493Z,100433.13
2022-12-09T09:01:27.023Z,100443.44
2022-12-09T09:03:53.865Z,100430.59
2022-12-09T09:06:21.026Z,100433.00
2022-12-09T09:08:47.946Z,100428.88
2022-12-09T09:11:18.056Z,100425.34
2022-12-09T09:13:46.971Z,100436.28
2022-12-09T09:16:16.758Z,100438.78
2022-12-09T09:18:43.787Z,100437.47
2022-12-09T09:21:12.451Z,100436.88
2022-12-09T09:23:39.677Z,100435.47
2022-12-09T09:26:11.252Z,100432.75
2022-12-09T09:28:38.540Z,100431.59
2022-12-09T09:31:06.636Z,100433.78
2022-12-09T09:33:34.072Z,100431.88
2022-12-09T09:36:08.299Z,100433.47
2022-12-09T09:38:36.746Z,100424.59
2022-12-09T09:41:08.855Z,100436.66
2022-12-09T09:43:38.314Z,100430.44
2022-12-09T09:46:05.291Z,100437.34
2022-12-09T09:48:34.254Z,100437.03
2022-12-09T09:51:21.171Z,100429.97
2022-12-09T09:53:51.331Z,100429.50
2022-12-09T09:56:45.969Z,100429.72
2022-12-09T09:59:37.651Z,100420.78
2022-12-09T10:02:17.205Z,100424.97
2022-12-09T10:04:56.455Z,100428.63
2022-12-09T10:07:33.790Z,100427.66
2022-12-09T10:10:05.834Z,100436.69
2022-12-09T10:12:39.295Z,100431.97
2022-12-09T10:15:17.242Z,100432.50
2022-12-09T10:17:55.282Z,100426.06
2022-12-09T10:20:27.903Z,100423.19
2022-12-09T10:23:05.061Z,100418.66
2022-12-09T10:25:34.652Z,100417.31
2022-12-09T10:28:23.009Z,100416.16
2022-12-09T10:30:51.123Z,100409.63
2022-12-09T10:33:19.784Z,100412.50
2022-12-09T10:35:47.139Z,100416.63
2022-12-09T10:38:17.472Z,100416.81
2022-12-09T10:40:47.429Z,100410.28
2022-12-09T10:43:37.547Z,100407.72
2022-12-09T10:46:24.281Z,100407.75
2022-12-09T10:48:54.081Z,100408.00
2022-12-09T10:51:29.269Z,100412.34
2022-12-09T10:54:02.721Z,100396.78
2022-12-09T10:56:33.092Z,100405.38
2022-12-09T10:59:15.945Z,100417.19
2022-12-09T11:01:55.846Z,100404.19
2022-12-09T11:04:31.019Z,100412.56
2022-12-09T11:07:02.155Z,100418.75
2022-12-09T11:09:34.544Z,100415.78
2022-12-09T11:12:02.446Z,100411.84
2022-12-09T11:14:41.444Z,100410.63
2022-12-09T11:17:20.180Z,100401.88
2022-12-09T11:19:51.444Z,100408.88
2022-12-09T11:22:41.228Z,100408.16
2022-12-09T11:25:23.806Z,100403.25
2022-12-09T11:27:58.435Z,100398.16
2022-12-09T11:30:34.855Z,100392.59
2022-12-09T11:33:14.162Z,100406.22
2022-12-09T11:35:43.896Z,100400.81
2022-12-09T11:38:25.173Z,100401.06
2022-12-09T11:41:13.001Z,100405.56
2022-12-09T11:43:52.460Z,100399.88
2022-12-09T11:46:25.656Z,100403.28
2022-12-09T11:49:01.693Z,100394.72
2022-12-09T11:51:30.839Z,100399.97
2022-12-09T11:54:03.719Z,100396.78
2022-12-09T11:56:31.106Z,100394.81
2022-12-09T11:59:09.463Z,100401.06
2022-12-09T12:01:55.005Z,100392.59
2022-12-09T12:04:52.102Z,100393.78
2022-12-09T12:07:44.052Z,100393.34
2022-12-09T12:10:18.783Z,100397.78
2022-12-09T12:12:56.132Z,100388.25
2022-12-09T12:15:38.719Z,100385.09
2022-12-09T12:18:10.758Z,100389.31
2022-12-09T12:20:41.918Z,100401.16
2022-12-09T12:23:29.895Z,100392.03
2022-12-09T12:26:16.382Z,100400.25
2022-12-09T12:29:08.691Z,100394.06
2022-12-09T12:32:02.452Z,100401.59
2022-12-09T12:35:23.541Z,100400.38
2022-12-09T12:37:55.875Z,100393.41
2022-12-09T12:40:36.326Z,100399.72
2022-12-09T12:43:37.742Z,100396.88
2022-12-09T12:46:18.178Z,100398.53
2022-12-09T12:48:57.088Z,100397.75
2022-12-09T12:51:54.080Z,100394.81
2022-12-09T12:54:35.306Z,100395.38
2022-12-09T12:57:26.650Z,100394.19
2022-12-09T13:00:16.199Z,100385.63
2022-12-09T13:02:50.702Z,100385.78
2022-12-09T13:05:35.028Z,100382.84
2022-12-09T13:08:23.402Z,100395.53
2022-12-09T13:10:53.316Z,100385.91
2022-12-09T13:13:28.207Z,100383.53
2022-12-09T13:15:58.972Z,100377.84
2022-12-09T13:18:29.691Z,100381.75
2022-12-09T13:20:57.729Z,100374.41
2022-12-09T13:23:55.839Z,100378.03
2022-12-09T13:26:49.866Z,100375.19
2022-12-09T13:29:25.958Z,100378.31
2022-12-09T13:32:02.508Z,100381.13
2022-12-09T13:34:28.896Z,100370.44
2022-12-09T13:36:55.360Z,100388.50
2022-12-09T13:39:40.158Z,100381.38
2022-12-09T13:42:47.024Z,100383.09
2022-12-09T13:45:16.891Z,100395.69
2022-12-09T13:47:43.428Z,100394.59
2022-12-09T13:50:48.270Z,100395.06
2022-12-09T13:53:20.850Z,100386.81
2022-12-09T13:55:57.458Z,100396.22
2022-12-09T13:59:01.897Z,100400.25
2022-12-09T14:01:42.577Z,100392.53
2022-12-09T14:04:27.755Z,100395.91
2022-12-09T14:07:10.050Z,100392.16
2022-12-09T14:09:41.387Z,100396.75
2022-12-09T14:12:11.730Z,100399.78
2022-12-09T14:14:47.829Z,100392.53
2022-12-09T14:17:40.523Z,100395.84
2022-12-09T14:20:23.330Z,100395.66
2022-12-09T14:23:13.103Z,100399.84
2022-12-09T14:25:56.418Z,100399.66
2022-12-09T14:28:40.718Z,100396.09
2022-12-09T14:31:09.240Z,100402.38
2022-12-09T14:33:54.070Z,100396.34
2022-12-09T14:36:27.224Z,100398.22
2022-12-09T14:39:23.702Z,100391.16
2022-12-09T14:41:49.895Z,100396.72
2022-12-09T14:44:25.446Z,100389.88
2022-12-09T14:46:54.387Z,100395.38
2022-12-09T14:49:23.852Z,100393.56
2022-12-09T14:52:03.404Z,100397.97
2022-12-09T14:54:37.877Z,100391.31
2022-12-09T14:57:07.274Z,100396.84
2022-12-09T14:59:34.264Z,100399.47
2022-12-09T15:02:04.249Z,100392.88
2022-12-09T15:04:32.586Z,100395.72
2022-12-09T15:07:14.273Z,100397.56
2022-12-09T15:10:02.388Z,100395.81
2022-12-09T15:12:35.540Z,100396.53
2022-12-09T15:15:07.219Z,100398.38
2022-12-09T15:17:43.247Z,100405.38
2022-12-09T15:20:33.952Z,100407.75
2022-12-09T15:23:07.012Z,100401.19
2022-12-09T15:25:42.599Z,100407.00
2022-12-09T15:28:21.448Z,100406.56
2022-12-09T15:31:01.569Z,100401.88
2022-12-09T15:33:42.717Z,100409.31
2022-12-09T15:36:12.899Z,100403.94
2022-12-09T15:38:53.375Z,100410.19
2022-12-09T15:41:38.888Z,100413.56
2022-12-09T15:44:09.411Z,100410.63
2022-12-09T15:46:37.067Z,100408.06
2022-12-09T15:49:04.301Z,100412.53
2022-12-09T15:51:32.987Z,100412.25
2022-12-09T15:54:01.831Z,100409.72
2022-12-09T15:56:52.384Z,100407.63
2022-12-09T15:59:22.327Z,100414.59
2022-12-09T16:01:51.545Z,100415.81
2022-12-09T16:04:41.502Z,100416.00
2022-12-09T16:07:09.675Z,100422.53
2022-12-09T16:09:36.623Z,100425.81
2022-12-09T16:12:03.115Z,100420.97
2022-12-09T16:14:43.120Z,100431.63
2022-12-09T16:17:24.497Z,100426.53
2022-12-09T16:19:51.188Z,100427.31
2022-12-09T16:22:23.908Z,100418.47
2022-12-09T16:25:14.605Z,100422.59
2022-12-09T16:27:45.667Z,100423.41
2022-12-09T16:30:20.770Z,100423.41
2022-12-09T16:32:55.511Z,100423.88
2022-12-09T16:35:35.575Z,100430.50
2022-12-09T16:38:11.154Z,100433.09
2022-12-09T16:40:43.574Z,100435.00
2022-12-09T16:43:16.342Z,100433.97
2022-12-09T16:46:12.415Z,100438.13
2022-12-09T16:48:38.892Z,100439.97
2022-12-09T16:51:13.334Z,100446.50
2022-12-09T16:53:45.745Z,100436.13
2022-12-09T16:56:21.164Z,100438.19
2022-12-09T16:58:47.781Z,100445.31
2022-12-09T17:01:15.782Z,100450.31
2022-12-09T17:03:49.583Z,100445.06
2022-12-09T17:06:17.934Z,100448.53
2022-12-09T17:08:45.111Z,100439.75
2022-12-09T17:11:12.336Z,100446.69
2022-12-09T17:13:39.251Z,100439.41
2022-12-09T17:16:06.694Z,100454.44
2022-12-09T17:18:33.447Z,100445.09
2022-12-09T17:21:05.618Z,100442.50
2022-12-09T17:23:39.095Z,100442.41
2022-12-09T17:26:08.231Z,100451.06
2022-12-09T17:28:35.826Z,100455.16
2022-12-09T17:31:07.624Z,100446.63
2022-12-09T17:33:34.276Z,100448.72
2022-12-09T17:36:00.868Z,100447.88
2022-12-09T17:38:29.420Z,100456.63
2022-12-09T17:40:56.438Z,100452.16
2022-12-09T17:43:23.047Z,100471.63
2022-12-09T17:45:49.788Z,100470.00
2022-12-09T17:48:16.284Z,100468.16
2022-12-09T17:50:42.739Z,100466.72
2022-12-09T17:53:09.274Z,100482.53
2022-12-09T17:55:38.087Z,100488.03
2022-12-09T17:58:04.739Z,100483.94
2022-12-09T18:00:32.118Z,100488.75
2022-12-09T18:02:58.567Z,100483.00
2022-12-09T18:05:25.106Z,100488.59
2022-12-09T18:07:51.717Z,100489.22
2022-12-09T18:10:18.334Z,100492.53
2022-12-09T18:12:44.784Z,100501.47
2022-12-09T18:15:11.465Z,100501.91
2022-12-09T18:17:37.916Z,100496.28
2022-12-09T18:20:05.341Z,100494.66
2022-12-09T18:22:32.129Z,100493.41
2022-12-09T18:24:58.571Z,100497.28
2022-12-09T18:27:25.022Z,100494.47
2022-12-09T18:29:51.522Z,100491.47
2022-12-09T18:32:21.369Z,100500.41
2022-12-09T18:34:49.246Z,100493.84
2022-12-09T18:37:15.732Z,100490.13
2022-12-09T18:39:42.257Z,100496.69
2022-12-09T18:42:09.171Z,100495.97
2022-12-09T18:44:35.726Z,100504.03
2022-12-09T18:47:02.224Z,100505.00
2022-12-09T18:49:28.707Z,100510.91
2022-12-09T18:51:55.807Z,100510.13
2022-12-09T18:54:27.718Z,100513.66
2022-12-09T18:56:55.828Z,100508.84
2022-12-09T18:59:25.054Z,100512.66
2022-12-09T19:01:51.927Z,100521.31
2022-12-09T19:04:21.290Z,100522.75
2022-12-09T19:06:50.264Z,100514.63
2022-12-09T19:09:22.820Z,100516.78
2022-12-09T19:11:50.493Z,100519.28
2022-12-09T19:14:19.125Z,100521.75
2022-12-09T19:16:45.968Z,100524.03
2022-12-09T19:19:14.843Z,100526.69
2022-12-09T19:21:42.517Z,100525.88
2022-12-09T19:24:14.601Z,100526.69
2022-12-09T19:26:43.009Z,100529.69
2022-12-09T19:29:10.531Z,100537.81
2022-12-09T19:31:39.922Z,100538.06
2022-12-09T19:34:09.909Z,100535.69
2022-12-09T19:36:36.782Z,100535.59
2022-12-09T19:39:06.299Z,100546.84
2022-12-09T19:41:32.836Z,100547.59
2022-12-09T19:44:01.329Z,100541.50
2022-12-09T19:46:28.739Z,100555.88
2022-12-09T19:48:56.042Z,100551.38
2022-12-09T19:51:24.113Z,100552.78
2022-12-09T19:53:53.443Z,100550.44
2022-12-09T19:56:20.683Z,100550.16
2022-12-09T19:58:47.721Z,100550.31
2022-12-09T20:01:17.711Z,100550.34
2022-12-09T20:03:48.166Z,100547.88
2022-12-09T20:06:16.964Z,100548.22
2022-12-09T20:08:44.494Z,100548.00
2022-12-09T20:11:20.047Z,100553.03
2022-12-09T20:13:47.056Z,100550.16
2022-12-09T20:16:16.798Z,100553.84
2022-12-09T20:18:45.484Z,100550.88
2022-12-09T20:21:13.553Z,100553.94
2022-12-09T20:23:41.463Z,100551.66
2022-12-09T20:26:11.115Z,100556.88
2022-12-09T20:28:39.022Z,100558.06
2022-12-09T20:31:11.321Z,100564.91
2022-12-09T20:33:38.525Z,100559.44
2022-12-09T20:36:17.283Z,100559.25
2022-12-09T20:38:48.756Z,100567.34
2022-12-09T20:41:15.384Z,100561.91
2022-12-09T20:43:43.879Z,100563.50
2022-12-09T20:46:13.553Z,100551.47
2022-12-09T20:48:41.007Z,100568.56
2022-12-09T20:51:13.884Z,100568.03
2022-12-09T20:53:42.360Z,100574.50
2022-12-09T20:56:13.288Z,100576.34
2022-12-09T20:58:41.919Z,100571.06
2022-12-09T21:01:10.834Z,100572.25
2022-12-09T21:03:37.937Z,100577.47
2022-12-09T21:06:05.512Z,100580.84
2022-12-09T21:08:32.307Z,100575.06
2022-12-09T21:11:10.140Z,100584.97
2022-12-09T21:13:38.965Z,100587.84
2022-12-09T21:16:11.116Z,100585.34
2022-12-09T21:18:37.962Z,100590.63
2022-12-09T21:21:06.145Z,100597.16
2022-12-09T21:23:35.209Z,100602.63
2022-12-09T21:26:06.672Z,100607.50
2022-12-09T21:28:34.233Z,100605.63
2022-12-09T21:31:10.149Z,100603.44
2022-12-09T21:33:37.607Z,100608.34
2022-12-09T21:36:09.553Z,100607.41
2022-12-09T21:38:37.094Z,100609.50
2022-12-09T21:41:09.365Z,100622.50
2022-12-09T21:43:36.872Z,100609.94
2022-12-09T21:46:04.994Z,100610.47
2022-12-09T21:48:32.171Z,100606.31
2022-12-09T21:51:00.692Z,100611.75
2022-12-09T21:53:27.665Z,100616.84
2022-12-09T21:55:54.223Z,100612.78
2022-12-09T21:58:20.877Z,100607.09
2022-12-09T22:00:47.423Z,100609.00
2022-12-09T22:03:13.911Z,100619.91
2022-12-09T22:05:40.355Z,100621.78
2022-12-09T22:08:06.831Z,100628.56
2022-12-09T22:10:36.672Z,100632.84
2022-12-09T22:13:03.212Z,100627.63
2022-12-09T22:15:30.183Z,100622.28
2022-12-09T22:17:57.247Z,100636.94
2022-12-09T22:21:00.872Z,100629.63
2022-12-09T22:23:11.999Z,100631.03
2022-12-09T22:25:39.337Z,100618.19
2022-12-09T22:28:05.900Z,100618.19
2022-12-09T22:30:35.656Z,100613.50
2022-12-09T22:33:02.396Z,100622.03
2022-12-09T22:35:28.909Z,100625.34
2022-12-09T22:37:58.067Z,100621.09
2022-12-09T22:40:25.698Z,100618.94
2022-12-09T22:42:52.231Z,100626.66
2022-12-09T22:45:18.702Z,100622.44
2022-12-09T22:47:45.440Z,100636.44
2022-12-09T22:50:11.924Z,100631.66
2022-12-09T22:52:38.513Z,100623.34
2022-12-09T22:55:06.567Z,100628.41
2022-12-09T22:57:33.131Z,100633.97
2022-12-09T22:59:59.568Z,100622.44
2022-12-09T23:02:26.179Z,100619.41
2022-12-09T23:04:52.664Z,100626.94
2022-12-09T23:07:19.131Z,100626.94
2022-12-09T23:09:46.276Z,100621.38
2022-12-09T23:12:12.769Z,100623.66
2022-12-09T23:14:39.407Z,100629.69
2022-12-09T23:17:05.851Z,100618.31
2022-12-09T23:19:32.423Z,100629.50
2022-12-09T23:21:58.870Z,100616.31
2022-12-09T23:24:25.359Z,100622.72
2022-12-09T23:26:54.413Z,100622.19
2022-12-09T23:29:21.345Z,100618.09
2022-12-09T23:31:48.114Z,100622.47
2022-12-09T23:34:15.355Z,100627.06
2022-12-09T23:36:43.945Z,100631.91
2022-12-09T23:39:13.644Z,100626.50
2022-12-09T23:41:40.857Z,100638.28
2022-12-09T23:44:09.770Z,100635.22
2022-12-09T23:46:36.450Z,100635.91
2022-12-09T23:49:03.533Z,100644.88
2022-12-09T23:51:32.459Z,100643.53
2022-12-09T23:54:03.958Z,100648.19
2022-12-09T23:56:32.169Z,100633.56
2022-12-09T23:59:00.767Z,100636.13
